Time;durP1;ratioP1;P1;durP2;ratioP2;P2;SDS_P1;SDS_P2;PMS_P1;PMS_P2;Temp;Humidity;BMP_temperature;BMP_pressure;BME280_temperature;BME280_humidity;BME280_pressure;Samples;Min_cycle;Max_cycle;Signal;HPM_P1;HPM_P2
2022/11/25 00:00:44;;;;;;;;;;;;;;;19.72;61.21;98874.97;2080962;28;20736;-49
2022/11/25 00:01:44;;;;;;;;;;;;;;;19.62;61.68;98878.88;2081241;28;19920;-48
2022/11/25 00:02:46;;;;;;;0.90;0.87;;;;;;;19.72;61.11;98880.34;2078846;28;19924;-46
2022/11/25 00:03:48;;;;;;;1.45;0.88;;;;;;;19.78;60.87;98880.38;2078521;28;20052;-52
2022/11/25 00:04:49;;;;;;;1.08;0.77;;;;;;;19.83;61.02;98885.13;2077420;28;20055;-50
2022/11/25 00:05:50;;;;;;;0.82;0.65;;;;;;;19.85;60.81;98897.34;2081836;28;20064;-48
2022/11/25 00:06:52;;;;;;;;;;;;;;;19.71;61.02;98887.59;2081551;28;20051;-48
2022/11/25 00:07:52;;;;;;;;;;;;;;;19.62;61.54;98880.75;2079973;28;19928;-50
2022/11/25 00:08:57;;;;;;;2.30;1.00;;;;;;;19.69;61.14;98880.78;2083319;28;19947;-49
2022/11/25 00:09:58;;;;;;;2.28;0.98;;;;;;;19.72;61.38;98881.19;2078485;28;20300;-47
2022/11/25 00:11:00;;;;;;;;;;;;;;;19.65;61.34;98877.63;2083074;28;20081;-52
2022/11/25 00:12:01;;;;;;;1.08;0.70;;;;;;;19.68;61.10;98885.34;2081252;28;19924;-47
2022/11/25 00:13:03;;;;;;;;;;;;;;;19.61;61.41;98879.06;2083239;28;22265;-51
2022/11/25 00:14:05;;;;;;;1.02;0.80;;;;;;;19.66;61.38;98886.56;2080832;28;19962;-47
2022/11/25 00:15:07;;;;;;;1.48;0.75;;;;;;;19.71;61.08;98887.59;2083892;28;20088;-50
2022/11/25 00:16:10;;;;;;;0.80;0.68;;;;;;;19.74;61.21;98889.88;2082185;28;20056;-51
2022/11/25 00:17:11;;;;;;;1.38;0.90;;;;;;;19.74;60.79;98884.50;2082484;28;20107;-48
2022/11/25 00:18:12;;;;;;;1.42;0.80;;;;;;;19.76;60.96;98889.69;2080469;28;20056;-47
2022/11/25 00:19:14;;;;;;;;;;;;;;;19.62;61.39;98883.44;2084699;28;20049;-46
2022/11/25 00:20:15;;;;;;;1.02;0.70;;;;;;;19.66;61.16;98886.56;2083070;28;19924;-50
2022/11/25 00:21:18;;;;;;;;;;;;;;;19.55;61.47;98885.25;2084481;28;20071;-49
2022/11/25 00:22:18;;;;;;;0.63;0.47;;;;;;;19.61;61.18;98890.69;2081748;28;20359;-46
2022/11/25 00:23:20;;;;;;;;;;;;;;;19.52;61.74;98897.25;2083082;28;20053;-47
2022/11/25 00:24:22;;;;;;;1.35;0.88;;;;;;;19.60;61.43;98896.25;2083383;28;19935;-47
2022/11/25 00:25:24;;;;;;;2.40;0.80;;;;;;;19.63;60.97;98893.16;2083694;28;20412;-46
2022/11/25 00:26:27;;;;;;;2.38;1.02;;;;;;;19.67;61.30;98898.97;2082922;28;20049;-47
2022/11/25 00:27:28;;;;;;;0.85;0.60;;;;;;;19.68;60.86;98900.66;2080428;28;20045;-47
2022/11/25 00:28:30;;;;;;;;;;;;;;;19.55;61.53;98896.03;2083456;28;20041;-48
2022/11/25 00:29:31;;;;;;;1.00;0.70;;;;;;;19.58;61.45;98904.50;2081339;28;20000;-47
2022/11/25 00:30:32;;;;;;;;;;;;;;;19.50;61.56;98903.88;2083135;28;20049;-47
2022/11/25 00:31:35;;;;;;;0.73;0.60;;;;;;;19.57;61.37;98910.13;2083629;28;20884;-49
2022/11/25 00:32:37;;;;;;;0.80;0.68;;;;;;;19.61;61.04;98912.22;2082778;28;20060;-49
2022/11/25 00:33:39;;;;;;;1.30;1.20;;;;;;;19.61;61.18;98912.22;2083024;28;20053;-47
2022/11/25 00:34:41;;;;;;;1.15;0.80;;;;;;;19.64;60.80;98910.97;2081414;28;20053;-47
2022/11/25 00:35:41;;;;;;;1.80;1.45;;;;;;;19.63;60.79;98909.28;2082842;28;20052;-49
2022/11/25 00:36:43;;;;;;;;;;;;;;;19.51;61.14;98909.06;2081721;28;20049;-46
2022/11/25 00:37:44;;;;;;;;;;;;;;;19.42;61.66;98913.81;2081496;28;19940;-46
2022/11/25 00:38:46;;;;;;;2.10;1.30;;;;;;;19.48;61.62;98905.97;2082595;28;20295;-47
2022/11/25 00:39:48;;;;;;;1.45;1.05;;;;;;;19.53;61.23;98908.84;2082755;28;20374;-45
2022/11/25 00:44:34;;;;;;;2.13;1.15;;;;;;;19.56;61.18;98903.09;2081624;28;20106;-48
2022/11/25 00:44:52;;;;;;;0.90;0.85;;;;;;;19.52;61.09;98908.03;2082271;28;20049;-47
2022/11/25 00:45:54;;;;;;;;;;;;;;;19.40;61.65;98915.84;2081255;28;20938;-47
2022/11/25 00:46:55;;;;;;;2.05;1.00;;;;;;;19.47;61.14;98905.09;2080998;28;19931;-45
2022/11/25 00:47:56;;;;;;;;;;;;;;;19.39;61.54;98914.22;2081730;28;20060;-48
2022/11/25 00:48:57;;;;;;;;;;;;;;;19.32;62.00;98913.34;2083666;28;19920;-47
2022/11/25 00:49:59;;;;;;;2.63;0.82;;;;;;;19.37;61.79;98913.56;2084196;28;19925;-45
2022/11/25 00:51:00;;;;;;;1.17;0.98;;;;;;;19.45;61.24;98911.75;2081995;28;20064;-46
2022/11/25 00:52:01;;;;;;;;;;;;;;;19.34;61.83;98921.22;2082587;28;20075;-46
2022/11/25 00:53:03;;;;;;;;;;;;;;;19.27;61.68;98921.19;2081545;28;20404;-46
2022/11/25 00:54:04;;;;;;;2.00;0.90;;;;;;;19.34;61.65;98922.03;2080012;28;19931;-46
2022/11/25 00:55:08;;;;;;;1.83;1.15;;;;;;;19.41;61.25;98930.13;2081919;28;20053;-46
2022/11/25 00:56:12;;;;;;;0.90;0.80;;;;;;;19.43;61.49;98920.81;2081876;28;20045;-46
2022/11/25 00:57:15;;;;;;;1.25;1.10;;;;;;;19.46;61.06;98924.97;2083565;28;20045;-47
2022/11/25 00:58:16;;;;;;;1.20;0.70;;;;;;;19.46;61.11;98926.84;2082901;28;20053;-45
2022/11/25 00:59:17;;;;;;;;;;;;;;;19.33;61.36;98925.75;2082885;28;20419;-50
2022/11/25 01:00:19;;;;;;;1.25;1.05;;;;;;;19.36;61.35;98924.53;2081406;28;20388;-46
2022/11/25 01:01:20;;;;;;;1.95;1.48;;;;;;;19.39;61.32;98924.97;2083029;28;20057;-49
2022/11/25 01:02:22;;;;;;;1.60;1.50;;;;;;;19.40;61.40;98925.78;2083550;28;20060;-45
2022/11/25 01:03:23;;;;;;;1.17;0.88;;;;;;;19.42;61.04;98929.13;2082689;28;20175;-49
2022/11/25 01:04:25;;;;;;;0.80;0.80;;;;;;;19.42;61.12;98929.13;2080215;28;20897;-47
2022/11/25 01:05:27;;;;;;;1.60;0.90;;;;;;;19.41;61.06;98922.88;2081625;28;20051;-51
2022/11/25 01:06:29;;;;;;;1.20;1.10;;;;;;;19.42;60.91;98926.44;2080708;28;20072;-51
2022/11/25 01:07:30;;;;;;;1.52;1.15;;;;;;;19.42;61.33;98929.94;2082281;28;20064;-49
2022/11/25 01:08:32;;;;;;;;;;;;;;;19.28;61.51;98928.25;2081063;28;20053;-47
2022/11/25 01:09:33;;;;;;;1.25;1.13;;;;;;;19.30;61.57;98930.72;2082886;28;20404;-49
2022/11/25 01:10:36;;;;;;;;;;;;;;;19.19;61.48;98935.66;2082499;28;20048;-46
2022/11/25 01:11:37;;;;;;;2.08;0.90;;;;;;;19.27;61.63;98931.13;2083709;28;19928;-49
2022/11/25 01:12:38;;;;;;;;;;;;;;;19.16;61.88;98925.25;2082009;28;20672;-48
2022/11/25 01:13:39;;;;;;;;;;;;;;;19.09;62.14;98928.97;2084011;28;19924;-50
2022/11/25 01:14:41;;;;;;;1.55;0.88;;;;;;;19.16;61.89;98932.50;2082664;28;19921;-50
2022/11/25 01:15:42;;;;;;;1.85;1.73;;;;;;;19.24;61.42;98926.97;2083863;28;20052;-49
2022/11/25 01:16:43;;;;;;;;;;;;;;;19.15;61.81;98936.25;2080621;28;20044;-49
2022/11/25 01:17:44;;;;;;;0.73;0.40;;;;;;;19.18;61.88;98931.28;2083814;28;19924;-51
2022/11/25 01:18:46;;;;;;;;;;;;;;;19.10;62.03;98930.63;2083462;28;20048;-50
2022/11/25 01:19:48;;;;;;;2.15;0.75;;;;;;;19.15;61.87;98934.38;2084380;28;19928;-49
2022/11/25 01:20:48;;;;;;;1.55;1.15;;;;;;;19.21;61.37;98932.75;2081488;28;20045;-49
2022/11/25 01:21:50;;;;;;;;;;;;;;;19.09;61.76;98920.91;2083866;28;20513;-50
2022/11/25 01:22:51;;;;;;;0.65;0.60;;;;;;;19.14;61.75;98916.59;2084050;28;19924;-51
2022/11/25 01:23:53;;;;;;;1.55;1.20;;;;;;;19.17;61.69;98926.13;2083383;28;20075;-48
2022/11/25 01:24:54;;;;;;;1.75;1.00;;;;;;;19.22;61.55;98922.81;2082555;28;20075;-50
2022/11/25 01:25:57;;;;;;;;;;;;;;;19.09;61.95;98918.22;2082724;28;20532;-50
2022/11/25 01:26:58;;;;;;;1.23;0.52;;;;;;;19.15;61.83;98925.47;2083270;28;20194;-52
2022/11/25 01:27:59;;;;;;;;;;;;;;;19.03;61.79;98924.38;2081906;28;20053;-48
2022/11/25 01:29:01;;;;;;;;;;;;;;;18.95;62.34;98926.22;2083740;28;19932;-46
2022/11/25 01:30:03;;;;;;;1.27;0.98;;;;;;;19.02;62.09;98923.56;2083204;28;19979;-50
2022/11/25 01:31:07;;;;;;;2.10;1.00;;;;;;;19.11;61.94;98929.59;2081988;28;20053;-48
2022/11/25 01:32:08;;;;;;;1.63;0.85;;;;;;;19.14;61.78;98934.59;2082111;28;20133;-45
2022/11/25 01:33:09;;;;;;;2.53;1.00;;;;;;;19.15;61.44;98937.06;2074445;28;20199;-47
2022/11/25 01:34:12;;;;;;;;;;;;;;;19.05;61.66;98933.06;2080986;28;20642;-45
2022/11/25 01:35:13;;;;;;;1.77;1.00;;;;;;;19.08;61.91;98940.75;2082550;28;20544;-45
2022/11/25 01:36:16;;;;;;;;;;;;;;;18.98;61.96;98941.94;2081875;28;20065;-47
2022/11/25 01:37:17;;;;;;;1.63;0.95;;;;;;;19.02;62.02;98947.75;2083010;28;19925;-47
2022/11/25 01:38:18;;;;;;;;;;;;;;;18.95;62.16;98949.59;2082781;28;20049;-46
2022/11/25 01:39:24;;;;;;;1.42;0.60;;;;;;;19.00;61.80;98952.50;2081216;28;20035;-52
2022/11/25 01:40:25;;;;;;;0.80;0.80;;;;;;;19.05;61.90;98954.59;2082519;28;20068;-46
2022/11/25 01:41:29;;;;;;;2.78;0.70;;;;;;;19.09;61.93;98958.56;2083464;28;20049;-46
2022/11/25 01:42:31;;;;;;;1.67;1.23;;;;;;;19.09;61.86;98950.47;2081659;28;20056;-47
2022/11/25 01:43:32;;;;;;;1.75;1.00;;;;;;;19.09;61.52;98956.69;2082755;28;20060;-45
2022/11/25 01:44:39;;;;;;;1.58;1.13;;;;;;;19.12;61.51;98961.66;2081097;28;20049;-47
2022/11/25 01:45:39;;;;;;;0.85;0.82;;;;;;;19.08;61.54;98955.00;2083816;28;20511;-48
2022/11/25 01:46:45;;;;;;;;;;;;;;;18.97;61.91;98960.94;2082530;28;20059;-49
2022/11/25 01:47:45;;;;;;;2.08;0.90;;;;;;;19.00;61.59;98952.50;2083182;28;19932;-50
2022/11/25 01:48:50;;;;;;;;;;;;;;;18.88;61.91;98954.91;2083875;28;20045;-51
2022/11/25 01:50:00;;;;;;;1.27;0.90;;;;;;;18.94;61.83;98954.13;2083419;28;19928;-51
2022/11/25 01:51:00;;;;;;;1.13;0.60;;;;;;;18.96;62.08;98956.59;2083440;28;20049;-46
2022/11/25 01:52:04;;;;;;;;;;;;;;;18.88;62.26;98952.22;2084161;28;20048;-52
2022/11/25 01:53:09;;;;;;;1.52;0.73;;;;;;;18.93;62.03;98948.94;2083734;28;19924;-54
2022/11/25 01:54:14;;;;;;;1.65;0.80;;;;;;;18.96;61.66;98952.06;2082051;28;20075;-47
2022/11/25 01:55:19;;;;;;;1.27;0.95;;;;;;;18.97;61.92;98945.66;2083927;28;20528;-48
2022/11/25 01:56:21;;;;;;;2.75;1.05;;;;;;;18.96;62.02;98946.69;2082407;28;20496;-50
2022/11/25 01:57:27;;;;;;;2.55;1.15;;;;;;;18.98;61.88;98952.69;2081491;28;20049;-46
2022/11/25 01:58:33;;;;;;;1.02;0.70;;;;;;;19.00;61.55;98943.59;2079985;28;20512;-51
2022/11/25 01:59:39;;;;;;;1.30;1.00;;;;;;;18.98;61.53;98943.81;2082734;28;20568;-46
2022/11/25 02:00:41;;;;;;;1.45;1.35;;;;;;;18.98;61.57;98935.75;2078669;28;20045;-52
2022/11/25 02:01:41;;;;;;;1.02;0.90;;;;;;;18.97;61.81;98932.22;2082571;28;20057;-53
2022/11/25 02:02:43;;;;;;;;;;;;;;;18.86;62.07;98935.47;2080244;28;20975;-49
2022/11/25 02:03:47;;;;;;;0.73;0.65;;;;;;;18.89;61.78;98928.88;2081230;28;20396;-50
2022/11/25 02:04:50;;;;;;;1.10;0.90;;;;;;;18.89;61.74;98921.63;2078783;28;20160;-47
2022/11/25 02:05:57;;;;;;;1.02;0.75;;;;;;;18.91;61.79;98924.94;2083349;28;20060;-52
2022/11/25 02:07:04;;;;;;;1.27;0.73;;;;;;;18.91;61.94;98927.63;2081401;28;20740;-55
2022/11/25 02:08:06;;;;;;;1.63;0.80;;;;;;;18.92;61.76;98934.69;2082893;28;20087;-48
2022/11/25 02:09:09;;;;;;;0.95;0.85;;;;;;;18.92;61.88;98933.84;2082600;28;20049;-51
2022/11/25 02:10:13;;;;;;;1.20;1.10;;;;;;;18.90;61.86;98930.53;2080666;28;20076;-54
2022/11/25 02:11:17;;;;;;;1.20;1.10;;;;;;;18.91;61.63;98934.88;2082143;28;20136;-51
2022/11/25 02:12:20;;;;;;;0.93;0.73;;;;;;;18.92;61.93;98934.69;2081782;28;20052;-49
2022/11/25 02:13:24;;;;;;;1.13;0.85;;;;;;;18.89;61.64;98935.06;2083791;28;20048;-46
2022/11/25 02:14:26;;;;;;;1.35;0.90;;;;;;;18.89;61.66;98939.63;2083182;28;20044;-48
2022/11/25 02:15:29;;;;;;;2.67;1.17;;;;;;;18.88;61.72;98929.88;2083094;28;20045;-47
2022/11/25 02:16:30;;;;;;;1.95;0.82;;;;;;;18.88;61.57;98928.03;2082484;28;20662;-46
2022/11/25 02:17:32;;;;;;;;;;;;;;;18.74;61.78;98923.59;2075716;28;20041;-51
2022/11/25 02:18:32;;;;;;;;;;;;;;;18.66;62.41;98926.41;2078903;28;19931;-50
2022/11/25 02:19:56;;;;;;;2.65;1.05;;;;;;;18.70;62.37;98930.38;2083502;28;19935;-47
2022/11/25 02:20:57;;;;;;;1.05;0.95;;;;;;;18.72;62.23;98931.84;2082243;28;20056;-49
2022/11/25 02:22:01;;;;;;;;;;;;;;;18.64;62.31;98932.00;2084745;28;20049;-48
2022/11/25 02:23:13;;;;;;;1.15;0.65;;;;;;;18.70;62.28;98939.25;2081649;28;19920;-46
2022/11/25 02:24:20;;;;;;;0.55;0.55;;;;;;;18.73;61.91;98941.56;2082471;28;20048;-48
2022/11/25 02:25:25;;;;;;;1.17;0.90;;;;;;;18.76;61.79;98935.00;2077710;28;20060;-50
2022/11/25 02:26:27;;;;;;;1.02;0.77;;;;;;;18.76;61.83;98932.31;2080528;28;20053;-46
2022/11/25 02:27:28;;;;;;;1.42;1.20;;;;;;;18.79;61.74;98926.53;2081620;28;20048;-45
2022/11/25 02:28:31;;;;;;;;;;;;;;;18.65;62.30;98924.75;2082876;28;20576;-47
2022/11/25 02:29:32;;;;;;;1.17;0.95;;;;;;;18.69;62.33;98912.59;2082143;28;19931;-45
2022/11/25 02:30:35;;;;;;;1.92;1.08;;;;;;;18.77;61.85;98914.31;2081175;28;20048;-46
2022/11/25 02:31:36;;;;;;;1.10;1.00;;;;;;;18.80;61.91;98916.59;2083025;28;20060;-48
2022/11/25 02:32:42;;;;;;;;;;;;;;;18.65;62.22;98919.38;2081316;28;20413;-47
2022/11/25 02:33:43;;;;;;;0.63;0.63;;;;;;;18.67;62.23;98915.47;2082265;28;19924;-48
2022/11/25 02:34:48;;;;;;;;;;;;;;;18.57;62.50;98908.78;2080954;28;20052;-48
2022/11/25 02:35:54;;;;;;;1.05;0.90;;;;;;;18.62;62.39;98912.56;2082548;28;19935;-47
2022/11/25 02:36:55;;;;;;;1.02;0.93;;;;;;;18.65;62.47;98908.63;2082375;28;20045;-47
2022/11/25 02:38:02;;;;;;;2.17;1.02;;;;;;;18.70;61.88;98908.88;2082297;28;20063;-47
2022/11/25 02:39:06;;;;;;;3.60;1.33;;;;;;;18.69;61.91;98912.59;2081943;28;20140;-47
2022/11/25 02:40:08;;;;;;;0.60;0.52;;;;;;;18.68;61.87;98905.56;2082422;28;20130;-47
2022/11/25 02:41:15;;;;;;;0.80;0.77;;;;;;;18.70;61.83;98901.66;2082240;28;20056;-47
2022/11/25 02:42:18;;;;;;;1.63;0.90;;;;;;;18.70;61.79;98901.66;2080285;28;20424;-47
2022/11/25 02:43:20;;;;;;;1.83;1.00;;;;;;;18.71;62.02;98902.47;2082880;28;20053;-47
2022/11/25 02:44:21;;;;;;;1.02;0.80;;;;;;;18.67;62.03;98898.53;2081667;28;20072;-46
2022/11/25 02:45:26;;;;;;;;;;;;;;;18.56;61.93;98899.91;2084138;28;20413;-46
2022/11/25 02:46:27;;;;;;;1.95;0.90;;;;;;;18.59;62.32;98896.00;2080382;28;19924;-47
2022/11/25 02:47:29;;;;;;;2.10;1.25;;;;;;;18.60;62.38;98893.09;2082556;28;20587;-46
2022/11/25 02:48:32;;;;;;;0.98;0.88;;;;;;;18.65;62.08;98905.97;2081403;28;20073;-47
2022/11/25 02:49:33;;;;;;;1.17;0.70;;;;;;;18.66;61.95;98908.44;2083567;28;20041;-48
2022/11/25 02:50:35;;;;;;;1.85;0.85;;;;;;;18.64;61.77;98901.63;2082256;28;20608;-47
2022/11/25 02:51:37;;;;;;;1.65;0.80;;;;;;;18.66;61.88;98907.59;2074408;28;20056;-47
2022/11/25 02:52:38;;;;;;;1.45;0.93;;;;;;;18.64;62.02;98913.19;2077752;28;20041;-48
2022/11/25 02:53:40;;;;;;;;;;;;;;;18.50;62.32;98916.81;2080670;28;20049;-46
2022/11/25 02:54:41;;;;;;;1.30;1.00;;;;;;;18.54;62.05;98918.91;2081537;28;19959;-47
2022/11/25 02:55:42;;;;;;;;;;;;;;;18.43;62.37;98919.44;2082112;28;20045;-46
2022/11/25 02:56:44;;;;;;;;;;;;;;;18.38;62.79;98926.41;2081378;28;19929;-46
2022/11/25 02:57:46;;;;;;;1.20;0.60;;;;;;;18.44;62.66;98926.50;2080852;28;19928;-49
2022/11/25 02:58:48;;;;;;;0.77;0.57;;;;;;;18.52;62.41;98925.50;2081793;28;20057;-50
2022/11/25 02:59:49;;;;;;;0.82;0.82;;;;;;;18.55;62.21;98922.41;2081078;28;20403;-46
2022/11/25 03:00:50;;;;;;;;;;;;;;;18.44;62.40;98926.50;2080542;28;20048;-48
2022/11/25 03:01:51;;;;;;;;;;;;;;;18.36;62.73;98928.47;2084042;28;19925;-46
2022/11/25 03:02:53;;;;;;;1.00;0.80;;;;;;;18.42;62.66;98935.75;2080811;28;20546;-47
2022/11/25 03:03:55;;;;;;;1.42;0.75;;;;;;;18.48;62.28;98935.81;2083785;28;20049;-48
2022/11/25 03:04:56;;;;;;;1.27;0.70;;;;;;;18.52;62.09;98934.38;2081068;28;20056;-48
2022/11/25 03:05:57;;;;;;;;;;;;;;;18.40;62.34;98930.56;2082126;28;20048;-46
2022/11/25 03:06:58;;;;;;;;;;;;;;;18.31;62.61;98939.81;2081660;28;20339;-47
2022/11/25 03:08:00;;;;;;;1.27;0.70;;;;;;;18.37;62.64;98941.72;2083569;28;19937;-46
2022/11/25 03:09:01;;;;;;;1.40;0.70;;;;;;;18.41;62.48;98937.59;2080393;28;20049;-47
2022/11/25 03:10:03;;;;;;;;;;;;;;;18.36;62.61;98934.69;2083119;28;20139;-47
2022/11/25 03:11:04;;;;;;;1.90;0.80;;;;;;;18.39;62.60;98939.66;2081671;28;19951;-46
2022/11/25 03:12:19;;;;;;;1.92;0.90;;;;;;;18.43;62.40;98927.50;2081072;28;20873;-46
2022/11/25 03:13:21;;;;;;;1.55;1.15;;;;;;;18.46;62.41;98932.47;2082591;28;20086;-48
2022/11/25 03:14:23;;;;;;;0.77;0.73;;;;;;;18.47;62.14;98936.84;2075294;28;20164;-47
2022/11/25 03:15:25;;;;;;;1.23;0.90;;;;;;;18.49;61.99;98942.00;2081860;28;20056;-48
2022/11/25 03:16:26;;;;;;;1.25;0.70;;;;;;;18.49;62.06;98944.69;2081944;28;21179;-49
2022/11/25 03:17:28;;;;;;;;;;;;;;;18.38;62.33;98942.53;2082873;28;20045;-50
2022/11/25 03:18:28;;;;;;;;;;;;;;;18.28;62.65;98950.94;2082874;28;19929;-48
2022/11/25 03:19:30;;;;;;;2.37;0.80;;;;;;;18.35;62.42;98945.59;2084822;28;19936;-47
2022/11/25 03:20:31;;;;;;;1.33;1.08;;;;;;;18.40;62.41;98943.19;2079975;28;20382;-46
2022/11/25 03:21:33;;;;;;;;;;;;;;;18.30;62.58;98949.72;2081889;28;20390;-46
2022/11/25 03:22:33;;;;;;;;;;;;;;;18.23;62.77;98951.50;2081079;28;19929;-48
2022/11/25 03:23:35;;;;;;;0.70;0.60;;;;;;;18.29;62.78;98941.84;2083750;28;19924;-47
2022/11/25 03:24:36;;;;;;;0.80;0.70;;;;;;;18.37;62.36;98941.72;2080553;28;20056;-47
2022/11/25 03:25:38;;;;;;;;;;;;;;;18.26;62.82;98943.06;2080610;28;20059;-46
2022/11/25 03:26:39;;;;;;;1.08;0.98;;;;;;;18.33;62.64;98943.13;2080035;28;19978;-47
2022/11/25 03:27:42;;;;;;;1.13;0.85;;;;;;;18.38;62.20;98940.66;2082394;28;20523;-47
2022/11/25 03:28:43;;;;;;;0.88;0.85;;;;;;;18.40;62.31;98941.31;2081857;28;20049;-47
2022/11/25 03:29:45;;;;;;;;;;;;;;;18.29;62.41;98933.78;2083550;28;20374;-46
2022/11/25 03:30:45;;;;;;;;;;;;;;;18.21;62.99;98936.63;2081814;28;19924;-47
2022/11/25 03:31:47;;;;;;;1.67;1.23;;;;;;;18.26;62.48;98931.50;2080493;28;19920;-49
2022/11/25 03:32:49;;;;;;;1.17;1.08;;;;;;;18.32;62.03;98930.72;2080068;28;20053;-47
2022/11/25 03:33:50;;;;;;;1.10;0.70;;;;;;;18.35;62.27;98922.28;2079343;28;20041;-50
2022/11/25 03:34:51;;;;;;;;;;;;;;;18.24;62.50;98920.94;2081860;28;20129;-49
2022/11/25 03:35:52;;;;;;;0.82;0.82;;;;;;;18.27;62.36;98920.53;2083269;28;19925;-47
2022/11/25 03:36:54;;;;;;;;;;;;;;;18.19;62.82;98914.50;2080710;28;20083;-46
2022/11/25 03:37:54;;;;;;;;;;;;;;;18.11;63.21;98907.44;2082776;28;19925;-46
2022/11/25 03:38:56;;;;;;;1.53;0.80;;;;;;;18.18;62.79;98910.16;2081026;28;20020;-47
2022/11/25 03:39:57;;;;;;;1.25;1.00;;;;;;;18.27;62.47;98914.34;2082514;28;20044;-47
2022/11/25 03:40:58;;;;;;;;;;;;;;;18.18;62.83;98912.84;2079775;28;20861;-47
2022/11/25 03:41:59;;;;;;;;;;;;;;;18.09;63.09;98917.53;2080824;28;20498;-48
2022/11/25 03:43:02;;;;;;;1.20;1.00;;;;;;;18.18;62.68;98915.53;2080212;28;20011;-49
2022/11/25 03:44:03;;;;;;;1.45;1.05;;;;;;;18.24;62.71;98926.31;2079274;28;20879;-50
2022/11/25 03:45:06;;;;;;;;;;;;;;;18.15;62.89;98929.34;2079545;28;20144;-47
2022/11/25 03:46:06;;;;;;;0.82;0.70;;;;;;;18.22;62.57;98922.16;2080356;28;19928;-47
2022/11/25 03:47:08;;;;;;;;;;;;;;;18.15;62.94;98926.66;2081305;28;20567;-47
2022/11/25 03:48:08;;;;;;;;;;;;;;;18.06;62.94;98917.91;2082010;28;19921;-47
2022/11/25 03:49:10;;;;;;;1.43;0.93;;;;;;;18.16;62.89;98928.31;2081891;28;20024;-48
2022/11/25 03:50:13;;;;;;;2.20;0.60;;;;;;;18.23;62.67;98926.53;2078686;28;20394;-46
2022/11/25 03:51:15;;;;;;;1.30;1.05;;;;;;;18.25;62.47;98928.00;2079361;28;20119;-47
2022/11/25 03:52:16;;;;;;;1.38;0.90;;;;;;;18.29;62.28;98928.41;2080649;28;20041;-47
2022/11/25 03:53:18;;;;;;;1.27;1.00;;;;;;;18.29;62.14;98928.41;2081707;28;20048;-48
2022/11/25 03:54:19;;;;;;;0.93;0.85;;;;;;;18.27;62.27;98931.28;2082181;28;20059;-54
2022/11/25 03:55:21;;;;;;;;;;;;;;;18.17;62.66;98938.03;2081265;28;20127;-46
2022/11/25 03:56:21;;;;;;;;;;;;;;;18.06;62.84;98937.53;2082406;28;19927;-47
2022/11/25 03:57:23;;;;;;;1.55;0.77;;;;;;;18.13;62.81;98942.94;2082144;28;19928;-50
2022/11/25 03:58:25;;;;;;;0.70;0.70;;;;;;;18.18;62.71;98939.69;2081864;28;20377;-47
2022/11/25 03:59:27;;;;;;;0.63;0.60;;;;;;;18.19;62.74;98944.03;2081770;28;20143;-47
2022/11/25 04:00:28;;;;;;;0.95;0.70;;;;;;;18.22;62.33;98941.81;2080446;28;20052;-48
2022/11/25 04:01:29;;;;;;;;;;;;;;;18.12;62.58;98949.34;2080015;28;21589;-47
2022/11/25 04:02:30;;;;;;;;;;;;;;;18.03;62.99;98945.13;2081464;28;20569;-51
2022/11/25 04:03:32;;;;;;;2.20;1.03;;;;;;;18.09;62.85;98950.56;2081882;28;19956;-50
2022/11/25 04:04:33;;;;;;;0.88;0.70;;;;;;;18.16;62.61;98949.78;2082171;28;20068;-51
2022/11/25 04:05:34;;;;;;;;;;;;;;;18.06;62.90;98955.50;2081220;28;20044;-53
2022/11/25 04:06:38;;;;;;;1.33;0.98;;;;;;;18.11;62.71;98946.84;2080970;28;20307;-45
2022/11/25 04:07:39;;;;;;;1.17;0.90;;;;;;;18.16;62.59;98945.22;2081170;28;20412;-53
2022/11/25 04:08:41;;;;;;;0.70;0.63;;;;;;;18.17;62.38;98956.84;2081681;28;20808;-51
2022/11/25 04:09:43;;;;;;;0.60;0.60;;;;;;;18.20;62.40;98946.53;2083111;28;20049;-52
2022/11/25 04:10:43;;;;;;;1.92;0.77;;;;;;;18.20;62.34;98948.38;2081171;28;20524;-51
2022/11/25 04:13:04;;;;;;;0.85;0.73;;;;;;;18.06;62.80;98945.56;2080644;28;19936;-49
2022/11/25 04:14:07;;;;;;;1.00;0.68;;;;;;;18.13;62.46;98942.13;2083409;28;20048;-47
2022/11/25 04:15:08;;;;;;;1.42;0.98;;;;;;;18.15;62.27;98940.06;2078782;28;20080;-53
2022/11/25 04:16:20;;;;;;;0.73;0.65;;;;;;;18.17;62.43;98935.34;2083197;28;20040;-53
2022/11/25 04:17:20;;;;;;;1.25;1.05;;;;;;;18.15;62.56;98942.75;2081130;28;20194;-52
2022/11/25 04:18:22;;;;;;;;;;;;;;;18.05;62.83;98938.56;2082367;28;20045;-45
2022/11/25 04:19:23;;;;;;;0.95;0.88;;;;;;;18.05;62.58;98932.34;2082101;28;19929;-54
2022/11/25 04:20:25;;;;;;;0.90;0.90;;;;;;;18.11;62.69;98936.09;2081228;28;20053;-47
2022/11/25 04:21:26;;;;;;;1.15;0.90;;;;;;;18.12;62.63;98937.78;2081926;28;20060;-48
2022/11/25 04:22:27;;;;;;;;;;;;;;;18.02;62.70;98938.09;2081946;28;20045;-54
2022/11/25 04:23:28;;;;;;;;;;;;;;;17.94;63.05;98930.16;2083803;28;19920;-51
2022/11/25 04:24:30;;;;;;;1.70;0.97;;;;;;;18.01;62.91;98920.34;2080876;28;20284;-51
2022/11/25 04:25:30;;;;;;;1.17;0.73;;;;;;;18.06;62.69;98917.91;2080473;28;20084;-49
2022/11/25 04:26:32;;;;;;;;;;;;;;;17.96;62.73;98920.91;2081758;28;20140;-51
2022/11/25 04:27:33;;;;;;;;;;;;;;;17.91;63.15;98925.19;2080935;28;19932;-46
2022/11/25 04:28:34;;;;;;;0.87;0.50;;;;;;;17.97;62.91;98929.78;2081526;28;19929;-52
2022/11/25 04:29:37;;;;;;;0.90;0.82;;;;;;;18.02;62.61;98933.53;2082716;28;20291;-53
2022/11/25 04:30:39;;;;;;;0.98;0.80;;;;;;;18.06;62.68;98932.16;2081321;28;20053;-52
2022/11/25 04:31:40;;;;;;;0.80;0.68;;;;;;;18.08;62.43;98927.44;2081549;28;20405;-46
2022/11/25 04:32:41;;;;;;;;;;;;;;;17.95;62.94;98932.66;2081893;28;20041;-51
2022/11/25 04:33:42;;;;;;;;;;;;;;;17.87;63.22;98924.75;2082351;28;19925;-48
2022/11/25 04:34:44;;;;;;;1.80;0.73;;;;;;;17.93;63.10;98926.66;2081860;28;20019;-50
2022/11/25 04:35:46;;;;;;;1.63;1.10;;;;;;;18.00;62.60;98926.75;2081293;28;20041;-50
2022/11/25 04:36:47;;;;;;;1.35;0.93;;;;;;;18.04;62.71;98930.69;2081026;28;20095;-51
2022/11/25 04:37:48;;;;;;;1.48;1.00;;;;;;;18.06;62.55;98934.84;2080778;28;20052;-50
2022/11/25 04:38:50;;;;;;;;;;;;;;;17.94;62.88;98932.84;2082851;28;21398;-50
2022/11/25 04:39:51;;;;;;;1.17;0.95;;;;;;;17.97;62.84;98925.28;2081909;28;19924;-46
2022/11/25 04:40:52;;;;;;;;;;;;;;;17.91;62.99;98936.75;2081355;28;20063;-50
2022/11/25 04:42:30;;;;;;;1.05;0.85;;;;;;;17.98;62.90;98942.19;2082095;28;20011;-44
2022/11/25 04:43:16;;;;;;;0.98;0.80;;;;;;;17.98;62.63;98943.03;2082352;28;20041;-54
2022/11/25 04:44:17;;;;;;;1.13;0.95;;;;;;;18.02;62.60;98938.09;2081358;28;20056;-50
2022/11/25 04:45:20;;;;;;;;;;;;;;;17.91;62.92;98942.13;2081058;28;20065;-48
2022/11/25 04:46:23;;;;;;;0.85;0.85;;;;;;;17.96;62.62;98944.22;2079734;28;19921;-47
2022/11/25 04:47:25;;;;;;;0.82;0.52;;;;;;;17.98;62.70;98937.66;2081582;28;20049;-52
2022/11/25 04:48:27;;;;;;;1.40;1.17;;;;;;;18.02;62.51;98936.22;2081551;28;20048;-50
2022/11/25 04:49:29;;;;;;;1.05;0.88;;;;;;;18.01;62.46;98945.31;2082205;28;20590;-44
2022/11/25 04:50:30;;;;;;;1.85;0.90;;;;;;;18.03;62.40;98937.91;2081456;28;20060;-45
2022/11/25 04:51:31;;;;;;;;;;;;;;;17.96;62.59;98933.50;2082785;28;20053;-54
2022/11/25 04:52:32;;;;;;;0.82;0.65;;;;;;;18.05;62.45;98938.56;2081896;28;19925;-49
2022/11/25 04:53:34;;;;;;;;;;;;;;;17.99;62.38;98938.47;2081728;28;20067;-52
2022/11/25 04:54:34;;;;;;;;;;;;;;;17.97;62.62;98938.69;2081827;28;19959;-54
2022/11/25 04:55:36;;;;;;;0.80;0.80;;;;;;;18.09;62.67;98945.19;2081350;28;19931;-48
2022/11/25 04:56:37;;;;;;;1.05;0.80;;;;;;;18.24;62.01;98946.97;2081802;28;20056;-50
2022/11/25 04:57:39;;;;;;;;;;;;;;;18.21;62.14;98952.72;2082471;28;20780;-45
2022/11/25 04:59:59;;;;;;;1.05;0.90;;;;;;;18.32;61.89;98957.56;2081512;28;19932;-48
2022/11/25 05:01:01;;;;;;;;;;;;;;;18.31;62.31;98959.44;2081973;28;20085;-48
2022/11/25 05:02:03;;;;;;;0.98;0.80;;;;;;;18.38;62.16;98948.72;2081795;28;19975;-52
2022/11/25 05:03:05;;;;;;;1.63;1.00;;;;;;;18.46;61.79;98956.66;2080455;28;20053;-50
2022/11/25 05:04:06;;;;;;;0.60;0.60;;;;;;;18.51;61.58;98953.38;2083367;28;20053;-52
2022/11/25 05:05:07;;;;;;;;;;;;;;;18.48;61.76;98964.53;2081320;28;20138;-52
2022/11/25 05:06:09;;;;;;;2.20;1.10;;;;;;;18.53;61.83;98962.91;2081065;28;19929;-50
2022/11/25 05:07:11;;;;;;;0.98;0.60;;;;;;;18.60;61.58;98967.50;2082564;28;20049;-53